sensor_id;sensor_type;location;lat;lon;timestamp;pressure;altitude;pressure_sealevel;temperature;humidity
12801;BME280;6464;42.494;27.470;2022-07-29T00:00:13;101264.59;;;23.41;100.00
12801;BME280;6464;42.494;27.470;2022-07-29T00:08:47;101192.53;;;22.89;100.00
12801;BME280;6464;42.494;27.470;2022-07-29T00:11:14;101238.53;;;23.13;100.00
12801;BME280;6464;42.494;27.470;2022-07-29T00:13:41;101213.53;;;22.96;100.00
12801;BME280;6464;42.494;27.470;2022-07-29T00:16:08;101216.72;;;22.89;100.00
12801;BME280;6464;42.494;27.470;2022-07-29T00:18:35;101281.66;;;23.25;100.00
12801;BME280;6464;42.494;27.470;2022-07-29T00:21:02;101260.34;;;23.22;100.00
12801;BME280;6464;42.494;27.470;2022-07-29T00:29:00;101215.75;;;22.90;100.00
12801;BME280;6464;42.494;27.470;2022-07-29T00:31:27;101275.44;;;23.25;100.00
12801;BME280;6464;42.494;27.470;2022-07-29T00:33:55;101272.28;;;23.18;100.00
12801;BME280;6464;42.494;27.470;2022-07-29T00:36:22;101272.28;;;23.18;100.00
12801;BME280;6464;42.494;27.470;2022-07-29T00:38:48;101228.81;;;22.96;100.00
12801;BME280;6464;42.494;27.470;2022-07-29T00:51:44;101278.78;;;23.14;100.00
12801;BME280;6464;42.494;27.470;2022-07-29T00:54:12;101249.19;;;23.00;100.00
12801;BME280;6464;42.494;27.470;2022-07-29T00:56:57;101206.78;;;22.75;100.00
12801;BME280;6464;42.494;27.470;2022-07-29T00:59:25;101273.97;;;23.05;100.00
12801;BME280;6464;42.494;27.470;2022-07-29T04:03:26;101235.72;;;22.11;100.00
12801;BME280;6464;42.494;27.470;2022-07-29T04:06:02;101223.75;;;22.17;100.00
12801;BME280;6464;42.494;27.470;2022-07-29T04:08:35;101220.13;;;22.32;100.00
12801;BME280;6464;42.494;27.470;2022-07-29T04:11:02;101281.81;;;22.79;100.00
12801;BME280;6464;42.494;27.470;2022-07-29T04:13:30;101286.00;;;22.99;100.00
12801;BME280;6464;42.494;27.470;2022-07-29T04:15:57;101292.63;;;23.08;100.00
12801;BME280;6464;42.494;27.470;2022-07-29T04:18:26;101286.00;;;23.14;100.00
12801;BME280;6464;42.494;27.470;2022-07-29T04:20:53;101245.69;;;22.69;100.00
12801;BME280;6464;42.494;27.470;2022-07-29T04:23:24;101236.31;;;22.46;100.00
12801;BME280;6464;42.494;27.470;2022-07-29T04:26:22;101296.44;;;22.90;100.00
12801;BME280;6464;42.494;27.470;2022-07-29T04:28:49;101247.50;;;22.69;100.00
12801;BME280;6464;42.494;27.470;2022-07-29T04:31:16;101251.25;;;22.80;100.00
12801;BME280;6464;42.494;27.470;2022-07-29T04:33:45;101245.00;;;22.80;100.00
12801;BME280;6464;42.494;27.470;2022-07-29T04:36:12;101249.94;;;22.88;100.00
12801;BME280;6464;42.494;27.470;2022-07-29T04:38:40;101291.59;;;22.80;100.00
12801;BME280;6464;42.494;27.470;2022-07-29T04:41:11;101281.75;;;22.65;100.00
12801;BME280;6464;42.494;27.470;2022-07-29T04:44:18;101324.50;;;23.00;100.00
12801;BME280;6464;42.494;27.470;2022-07-29T04:46:46;101261.31;;;22.77;100.00
12801;BME280;6464;42.494;27.470;2022-07-29T04:49:21;101258.63;;;22.77;100.00
12801;BME280;6464;42.494;27.470;2022-07-29T04:51:49;101256.78;;;22.93;100.00
12801;BME280;6464;42.494;27.470;2022-07-29T04:54:16;101302.06;;;23.29;100.00
12801;BME280;6464;42.494;27.470;2022-07-29T04:56:43;101323.00;;;23.53;100.00
12801;BME280;6464;42.494;27.470;2022-07-29T04:59:26;101236.13;;;22.94;100.00
12801;BME280;6464;42.494;27.470;2022-07-29T05:02:38;101307.44;;;23.44;100.00
12801;BME280;6464;42.494;27.470;2022-07-29T05:05:20;101306.13;;;23.65;100.00
12801;BME280;6464;42.494;27.470;2022-07-29T05:07:47;101303.75;;;23.88;100.00
12801;BME280;6464;42.494;27.470;2022-07-29T05:10:14;101313.16;;;24.09;100.00
12801;BME280;6464;42.494;27.470;2022-07-29T05:12:41;101302.72;;;24.17;100.00
12801;BME280;6464;42.494;27.470;2022-07-29T05:15:09;101300.34;;;24.40;100.00
12801;BME280;6464;42.494;27.470;2022-07-29T05:17:36;101307.44;;;24.68;100.00
12801;BME280;6464;42.494;27.470;2022-07-29T05:20:03;101303.03;;;24.79;100.00
12801;BME280;6464;42.494;27.470;2022-07-29T05:22:32;101239.25;;;24.53;100.00
12801;BME280;6464;42.494;27.470;2022-07-29T05:24:59;101254.59;;;24.78;100.00
12801;BME280;6464;42.494;27.470;2022-07-29T05:27:26;101309.47;;;25.29;100.00
12801;BME280;6464;42.494;27.470;2022-07-29T05:29:53;101206.66;;;24.94;100.00
12801;BME280;6464;42.494;27.470;2022-07-29T05:32:20;101298.19;;;25.61;100.00
12801;BME280;6464;42.494;27.470;2022-07-29T05:34:47;101292.69;;;25.75;100.00
12801;BME280;6464;42.494;27.470;2022-07-29T05:37:14;101313.00;;;26.05;100.00
12801;BME280;6464;42.494;27.470;2022-07-29T05:39:42;101315.66;;;25.94;100.00
12801;BME280;6464;42.494;27.470;2022-07-29T05:42:09;101295.03;;;25.80;100.00
12801;BME280;6464;42.494;27.470;2022-07-29T05:44:37;101249.44;;;25.38;100.00
12801;BME280;6464;42.494;27.470;2022-07-29T05:47:04;101258.91;;;25.44;100.00
12801;BME280;6464;42.494;27.470;2022-07-29T05:49:32;101262.75;;;25.78;100.00
12801;BME280;6464;42.494;27.470;2022-07-29T05:51:59;101315.56;;;26.19;100.00
12801;BME280;6464;42.494;27.470;2022-07-29T05:54:26;101318.09;;;26.33;100.00
12801;BME280;6464;42.494;27.470;2022-07-29T05:56:54;101233.06;;;25.89;100.00
12801;BME280;6464;42.494;27.470;2022-07-29T05:59:21;101331.78;;;26.67;100.00
12801;BME280;6464;42.494;27.470;2022-07-29T06:01:48;101331.59;;;26.33;100.00
12801;BME280;6464;42.494;27.470;2022-07-29T06:04:15;101294.25;;;25.91;100.00
12801;BME280;6464;42.494;27.470;2022-07-29T06:06:42;101266.19;;;25.80;100.00
12801;BME280;6464;42.494;27.470;2022-07-29T06:09:09;101325.69;;;26.28;100.00
12801;BME280;6464;42.494;27.470;2022-07-29T06:11:36;101331.91;;;26.42;100.00
12801;BME280;6464;42.494;27.470;2022-07-29T06:14:04;101336.56;;;26.63;100.00
12801;BME280;6464;42.494;27.470;2022-07-29T06:16:31;101337.34;;;26.77;100.00
12801;BME280;6464;42.494;27.470;2022-07-29T06:18:58;101365.97;;;26.68;100.00
12801;BME280;6464;42.494;27.470;2022-07-29T06:21:25;101309.63;;;26.14;100.00
12801;BME280;6464;42.494;27.470;2022-07-29T06:23:52;101349.56;;;26.58;100.00
12801;BME280;6464;42.494;27.470;2022-07-29T06:26:19;101369.50;;;26.92;100.00
12801;BME280;6464;42.494;27.470;2022-07-29T06:28:45;101368.34;;;26.73;100.00
12801;BME280;6464;42.494;27.470;2022-07-29T06:31:14;101324.66;;;26.66;100.00
12801;BME280;6464;42.494;27.470;2022-07-29T06:33:41;101292.88;;;26.46;100.00
12801;BME280;6464;42.494;27.470;2022-07-29T06:36:08;101318.06;;;26.46;100.00
12801;BME280;6464;42.494;27.470;2022-07-29T06:38:35;101381.03;;;26.83;100.00
12801;BME280;6464;42.494;27.470;2022-07-29T06:41:03;101363.59;;;26.87;100.00
12801;BME280;6464;42.494;27.470;2022-07-29T06:43:32;101375.25;;;27.12;100.00
12801;BME280;6464;42.494;27.470;2022-07-29T06:46:02;101375.16;;;27.25;100.00
12801;BME280;6464;42.494;27.470;2022-07-29T06:48:31;101382.44;;;27.24;100.00
12801;BME280;6464;42.494;27.470;2022-07-29T06:50:58;101351.06;;;26.98;100.00
12801;BME280;6464;42.494;27.470;2022-07-29T06:53:26;101308.91;;;26.60;100.00
12801;BME280;6464;42.494;27.470;2022-07-29T06:55:53;101343.53;;;26.79;100.00
12801;BME280;6464;42.494;27.470;2022-07-29T06:58:20;101349.00;;;27.01;100.00
12801;BME280;6464;42.494;27.470;2022-07-29T07:00:47;101368.41;;;26.84;100.00
12801;BME280;6464;42.494;27.470;2022-07-29T07:03:14;101398.31;;;26.94;100.00
12801;BME280;6464;42.494;27.470;2022-07-29T07:05:44;101409.88;;;27.20;100.00
12801;BME280;6464;42.494;27.470;2022-07-29T07:08:11;101455.34;;;27.38;100.00
12801;BME280;6464;42.494;27.470;2022-07-29T07:10:38;101435.13;;;27.31;100.00
12801;BME280;6464;42.494;27.470;2022-07-29T07:13:05;101450.94;;;27.37;100.00
12801;BME280;6464;42.494;27.470;2022-07-29T07:15:32;101470.31;;;27.66;100.00
12801;BME280;6464;42.494;27.470;2022-07-29T07:17:59;101486.09;;;27.61;100.00
12801;BME280;6464;42.494;27.470;2022-07-29T07:20:26;101478.44;;;27.66;100.00
12801;BME280;6464;42.494;27.470;2022-07-29T07:22:55;101463.47;;;27.38;100.00
12801;BME280;6464;42.494;27.470;2022-07-29T07:25:22;101386.88;;;26.66;100.00
12801;BME280;6464;42.494;27.470;2022-07-29T07:27:48;101468.75;;;27.29;100.00
12801;BME280;6464;42.494;27.470;2022-07-29T07:30:15;101402.38;;;27.23;100.00
12801;BME280;6464;42.494;27.470;2022-07-29T07:32:42;101532.38;;;28.05;100.00
12801;BME280;6464;42.494;27.470;2022-07-29T07:35:10;101556.31;;;28.22;100.00
12801;BME280;6464;42.494;27.470;2022-07-29T07:37:38;101579.13;;;28.20;100.00
12801;BME280;6464;42.494;27.470;2022-07-29T07:40:09;101573.44;;;28.23;100.00
12801;BME280;6464;42.494;27.470;2022-07-29T07:42:37;101543.97;;;27.96;100.00
12801;BME280;6464;42.494;27.470;2022-07-29T07:45:04;101462.50;;;27.51;100.00
12801;BME280;6464;42.494;27.470;2022-07-29T07:47:31;101529.19;;;28.00;100.00
12801;BME280;6464;42.494;27.470;2022-07-29T07:49:58;101508.59;;;27.97;100.00
12801;BME280;6464;42.494;27.470;2022-07-29T07:52:25;101568.56;;;28.39;100.00
12801;BME280;6464;42.494;27.470;2022-07-29T07:54:52;101546.69;;;28.07;100.00
12801;BME280;6464;42.494;27.470;2022-07-29T07:57:21;101526.19;;;27.80;100.00
12801;BME280;6464;42.494;27.470;2022-07-29T07:59:48;101541.47;;;27.81;100.00
12801;BME280;6464;42.494;27.470;2022-07-29T08:02:15;101542.59;;;28.01;100.00
12801;BME280;6464;42.494;27.470;2022-07-29T08:04:42;101564.00;;;28.39;100.00
12801;BME280;6464;42.494;27.470;2022-07-29T08:07:09;101569.78;;;28.46;100.00
12801;BME280;6464;42.494;27.470;2022-07-29T08:09:36;101588.66;;;28.59;100.00
12801;BME280;6464;42.494;27.470;2022-07-29T08:12:03;101586.81;;;28.59;100.00
12801;BME280;6464;42.494;27.470;2022-07-29T08:14:33;101605.03;;;28.91;100.00
12801;BME280;6464;42.494;27.470;2022-07-29T08:17:00;101577.44;;;28.63;100.00
12801;BME280;6464;42.494;27.470;2022-07-29T08:19:27;101564.72;;;28.64;100.00
12801;BME280;6464;42.494;27.470;2022-07-29T08:21:54;101583.09;;;28.72;100.00
12801;BME280;6464;42.494;27.470;2022-07-29T08:24:21;101578.53;;;28.72;100.00
12801;BME280;6464;42.494;27.470;2022-07-29T08:27:07;101565.31;;;28.79;100.00
12801;BME280;6464;42.494;27.470;2022-07-29T08:29:35;101578.28;;;28.64;100.00
12801;BME280;6464;42.494;27.470;2022-07-29T08:32:03;101580.50;;;28.70;100.00
12801;BME280;6464;42.494;27.470;2022-07-29T08:34:30;101527.34;;;28.56;100.00
12801;BME280;6464;42.494;27.470;2022-07-29T08:36:57;101588.13;;;28.76;100.00
12801;BME280;6464;42.494;27.470;2022-07-29T08:39:24;101604.44;;;28.99;100.00
12801;BME280;6464;42.494;27.470;2022-07-29T08:41:52;101606.78;;;29.03;100.00
12801;BME280;6464;42.494;27.470;2022-07-29T08:44:20;101631.19;;;29.14;100.00
12801;BME280;6464;42.494;27.470;2022-07-29T08:46:50;101659.03;;;29.39;100.00
12801;BME280;6464;42.494;27.470;2022-07-29T08:49:17;101670.59;;;29.63;100.00
12801;BME280;6464;42.494;27.470;2022-07-29T08:51:44;101676.91;;;29.64;100.00
12801;BME280;6464;42.494;27.470;2022-07-29T08:54:17;101692.53;;;29.83;100.00
12801;BME280;6464;42.494;27.470;2022-07-29T08:56:48;101705.66;;;30.10;100.00
12801;BME280;6464;42.494;27.470;2022-07-29T08:59:16;101706.63;;;30.20;100.00
12801;BME280;6464;42.494;27.470;2022-07-29T09:01:46;101693.69;;;30.33;100.00
12801;BME280;6464;42.494;27.470;2022-07-29T09:04:16;101676.88;;;29.75;100.00
12801;BME280;6464;42.494;27.470;2022-07-29T09:06:46;101685.13;;;29.85;100.00
12801;BME280;6464;42.494;27.470;2022-07-29T09:09:14;101691.91;;;30.23;100.00
12801;BME280;6464;42.494;27.470;2022-07-29T09:11:42;101720.22;;;30.41;100.00
12801;BME280;6464;42.494;27.470;2022-07-29T09:14:11;101732.94;;;30.52;100.00
12801;BME280;6464;42.494;27.470;2022-07-29T09:16:52;101737.72;;;30.80;100.00
12801;BME280;6464;42.494;27.470;2022-07-29T09:19:26;101745.59;;;30.62;100.00
12801;BME280;6464;42.494;27.470;2022-07-29T09:21:53;101749.81;;;30.02;100.00
12801;BME280;6464;42.494;27.470;2022-07-29T09:24:37;101730.09;;;30.21;100.00
12801;BME280;6464;42.494;27.470;2022-07-29T09:27:20;101745.00;;;30.59;100.00
12801;BME280;6464;42.494;27.470;2022-07-29T09:29:54;101746.84;;;30.79;100.00
12801;BME280;6464;42.494;27.470;2022-07-29T09:32:22;101743.78;;;30.93;100.00
12801;BME280;6464;42.494;27.470;2022-07-29T09:34:51;101736.63;;;30.51;100.00
12801;BME280;6464;42.494;27.470;2022-07-29T09:37:26;101722.34;;;30.16;100.00
12801;BME280;6464;42.494;27.470;2022-07-29T09:39:53;101715.31;;;30.35;100.00
12801;BME280;6464;42.494;27.470;2022-07-29T09:42:27;101732.34;;;32.19;100.00
12801;BME280;6464;42.494;27.470;2022-07-29T09:44:54;101782.06;;;34.00;100.00
12801;BME280;6464;42.494;27.470;2022-07-29T09:47:22;101801.44;;;35.39;100.00
12801;BME280;6464;42.494;27.470;2022-07-29T09:49:54;101816.81;;;36.16;100.00
12801;BME280;6464;42.494;27.470;2022-07-29T09:52:23;101780.34;;;34.35;100.00
12801;BME280;6464;42.494;27.470;2022-07-29T09:54:50;101749.75;;;33.31;100.00
12801;BME280;6464;42.494;27.470;2022-07-29T09:57:25;101754.22;;;34.23;100.00
12801;BME280;6464;42.494;27.470;2022-07-29T09:59:56;101799.84;;;36.29;100.00
12801;BME280;6464;42.494;27.470;2022-07-29T10:02:28;101791.16;;;37.22;100.00
12801;BME280;6464;42.494;27.470;2022-07-29T10:04:56;101830.16;;;38.12;100.00
12801;BME280;6464;42.494;27.470;2022-07-29T10:07:24;101814.88;;;37.23;100.00
12801;BME280;6464;42.494;27.470;2022-07-29T10:09:53;101762.88;;;34.36;100.00
12801;BME280;6464;42.494;27.470;2022-07-29T10:12:21;101742.09;;;33.44;100.00
12801;BME280;6464;42.494;27.470;2022-07-29T10:14:48;101778.00;;;35.10;100.00
12801;BME280;6464;42.494;27.470;2022-07-29T10:17:17;101813.94;;;36.59;100.00
12801;BME280;6464;42.494;27.470;2022-07-29T10:19:44;101845.44;;;38.15;100.00
12801;BME280;6464;42.494;27.470;2022-07-29T10:22:13;101872.38;;;39.49;100.00
12801;BME280;6464;42.494;27.470;2022-07-29T10:24:40;101847.88;;;37.78;100.00
12801;BME280;6464;42.494;27.470;2022-07-29T10:27:08;101805.28;;;35.96;100.00
12801;BME280;6464;42.494;27.470;2022-07-29T10:29:35;101769.63;;;34.24;100.00
12801;BME280;6464;42.494;27.470;2022-07-29T10:32:10;101776.28;;;34.83;100.00
12801;BME280;6464;42.494;27.470;2022-07-29T10:37:37;101828.25;;;38.13;100.00
12801;BME280;6464;42.494;27.470;2022-07-29T10:40:17;101827.13;;;38.91;100.00
12801;BME280;6464;42.494;27.470;2022-07-29T10:43:17;101787.44;;;37.07;100.00
12801;BME280;6464;42.494;27.470;2022-07-29T10:45:45;101751.91;;;34.72;100.00
12801;BME280;6464;42.494;27.470;2022-07-29T10:48:14;101729.47;;;34.76;100.00
12801;BME280;6464;42.494;27.470;2022-07-29T10:50:58;101787.03;;;37.26;100.00
12801;BME280;6464;42.494;27.470;2022-07-29T10:53:46;101801.16;;;38.01;100.00
12801;BME280;6464;42.494;27.470;2022-07-29T10:56:24;101785.81;;;36.48;100.00
12801;BME280;6464;42.494;27.470;2022-07-29T10:59:24;101758.16;;;35.59;100.00
12801;BME280;6464;42.494;27.470;2022-07-29T11:01:54;101744.78;;;34.61;100.00
12801;BME280;6464;42.494;27.470;2022-07-29T11:07:25;101819.81;;;38.60;100.00
12801;BME280;6464;42.494;27.470;2022-07-29T11:12:56;101840.16;;;40.22;100.00
12801;BME280;6464;42.494;27.470;2022-07-29T11:15:23;101820.44;;;39.23;100.00
12801;BME280;6464;42.494;27.470;2022-07-29T11:18:07;101734.94;;;36.12;100.00
12801;BME280;6464;42.494;27.470;2022-07-29T11:20:37;101741.84;;;36.08;100.00
12801;BME280;6464;42.494;27.470;2022-07-29T11:23:22;101749.84;;;35.85;100.00
12801;BME280;6464;42.494;27.470;2022-07-29T11:26:15;101800.31;;;38.62;100.00
12801;BME280;6464;42.494;27.470;2022-07-29T11:29:00;101801.34;;;38.46;100.00
12801;BME280;6464;42.494;27.470;2022-07-29T11:31:37;101795.13;;;39.19;100.00
12801;BME280;6464;42.494;27.470;2022-07-29T11:34:17;101769.41;;;37.51;100.00
12801;BME280;6464;42.494;27.470;2022-07-29T11:37:16;101742.88;;;36.47;100.00
12801;BME280;6464;42.494;27.470;2022-07-29T11:39:45;101741.75;;;35.75;100.00
12801;BME280;6464;42.494;27.470;2022-07-29T11:42:41;101755.38;;;37.30;100.00
12801;BME280;6464;42.494;27.470;2022-07-29T11:45:11;101759.16;;;37.99;100.00
12801;BME280;6464;42.494;27.470;2022-07-29T11:47:40;101783.06;;;39.71;100.00
12801;BME280;6464;42.494;27.470;2022-07-29T11:50:10;101757.53;;;39.03;100.00
12801;BME280;6464;42.494;27.470;2022-07-29T11:52:38;101705.50;;;35.47;100.00
12801;BME280;6464;42.494;27.470;2022-07-29T11:55:11;101669.75;;;33.57;100.00
12801;BME280;6464;42.494;27.470;2022-07-29T11:57:46;101687.13;;;34.45;100.00
12801;BME280;6464;42.494;27.470;2022-07-29T12:00:21;101712.59;;;35.90;100.00
12801;BME280;6464;42.494;27.470;2022-07-29T12:02:49;101749.03;;;38.38;100.00
12801;BME280;6464;42.494;27.470;2022-07-29T12:05:16;101751.78;;;40.07;100.00
12801;BME280;6464;42.494;27.470;2022-07-29T12:07:44;101757.44;;;39.77;100.00
12801;BME280;6464;42.494;27.470;2022-07-29T12:10:11;101641.75;;;36.43;100.00
12801;BME280;6464;42.494;27.470;2022-07-29T12:12:38;101694.81;;;36.02;100.00
12801;BME280;6464;42.494;27.470;2022-07-29T12:15:13;101695.84;;;36.42;100.00
12801;BME280;6464;42.494;27.470;2022-07-29T12:17:41;101691.81;;;36.69;100.00
12801;BME280;6464;42.494;27.470;2022-07-29T12:20:09;101727.78;;;39.50;100.00
12801;BME280;6464;42.494;27.470;2022-07-29T12:22:37;101768.41;;;41.60;100.00
12801;BME280;6464;42.494;27.470;2022-07-29T12:25:08;101778.88;;;41.72;100.00
12801;BME280;6464;42.494;27.470;2022-07-29T12:27:36;101710.22;;;37.78;100.00
12801;BME280;6464;42.494;27.470;2022-07-29T12:30:06;101675.41;;;36.12;100.00
12801;BME280;6464;42.494;27.470;2022-07-29T12:32:34;101670.06;;;36.27;100.00
12801;BME280;6464;42.494;27.470;2022-07-29T12:35:08;101641.28;;;34.81;100.00
12801;BME280;6464;42.494;27.470;2022-07-29T12:37:37;101655.28;;;35.55;100.00
12801;BME280;6464;42.494;27.470;2022-07-29T12:40:05;101655.94;;;36.54;100.00
12801;BME280;6464;42.494;27.470;2022-07-29T12:42:33;101684.66;;;38.16;100.00
12801;BME280;6464;42.494;27.470;2022-07-29T12:45:00;101729.81;;;39.77;100.00
12801;BME280;6464;42.494;27.470;2022-07-29T12:47:28;101711.47;;;39.55;100.00
12801;BME280;6464;42.494;27.470;2022-07-29T12:50:09;101671.84;;;37.23;100.00
12801;BME280;6464;42.494;27.470;2022-07-29T12:52:36;101658.94;;;36.92;100.00
12801;BME280;6464;42.494;27.470;2022-07-29T12:55:04;101645.34;;;36.19;100.00
12801;BME280;6464;42.494;27.470;2022-07-29T12:57:32;101635.56;;;35.75;100.00
12801;BME280;6464;42.494;27.470;2022-07-29T13:00:12;101626.44;;;35.59;100.00
12801;BME280;6464;42.494;27.470;2022-07-29T13:02:41;101642.13;;;35.99;100.00
12801;BME280;6464;42.494;27.470;2022-07-29T13:05:11;101603.81;;;35.73;100.00
12801;BME280;6464;42.494;27.470;2022-07-29T13:07:38;101614.06;;;35.30;100.00
12801;BME280;6464;42.494;27.470;2022-07-29T13:10:14;101615.63;;;35.41;100.00
12801;BME280;6464;42.494;27.470;2022-07-29T13:13:02;101630.78;;;36.74;100.00
12801;BME280;6464;42.494;27.470;2022-07-29T13:15:30;101665.22;;;38.32;100.00
12801;BME280;6464;42.494;27.470;2022-07-29T13:17:57;101676.19;;;38.70;100.00
12801;BME280;6464;42.494;27.470;2022-07-29T13:20:28;101635.69;;;36.56;100.00
12801;BME280;6464;42.494;27.470;2022-07-29T13:22:56;101594.63;;;34.99;100.00
12801;BME280;6464;42.494;27.470;2022-07-29T13:25:24;101597.47;;;34.89;100.00
12801;BME280;6464;42.494;27.470;2022-07-29T13:27:52;101574.31;;;34.84;100.00
12801;BME280;6464;42.494;27.470;2022-07-29T13:30:20;101570.75;;;33.53;100.00
12801;BME280;6464;42.494;27.470;2022-07-29T13:32:48;101557.53;;;33.13;100.00
12801;BME280;6464;42.494;27.470;2022-07-29T13:35:15;101559.47;;;33.03;100.00
12801;BME280;6464;42.494;27.470;2022-07-29T13:37:43;101544.13;;;32.37;100.00
12801;BME280;6464;42.494;27.470;2022-07-29T13:40:11;101553.78;;;33.14;100.00
12801;BME280;6464;42.494;27.470;2022-07-29T13:42:39;101555.66;;;33.13;100.00
12801;BME280;6464;42.494;27.470;2022-07-29T13:45:07;101550.31;;;32.94;100.00
12801;BME280;6464;42.494;27.470;2022-07-29T13:47:36;101557.81;;;33.10;100.00
12801;BME280;6464;42.494;27.470;2022-07-29T13:50:04;101527.38;;;32.77;100.00
12801;BME280;6464;42.494;27.470;2022-07-29T13:52:32;101552.66;;;33.07;100.00
12801;BME280;6464;42.494;27.470;2022-07-29T13:55:01;101556.31;;;33.43;100.00
12801;BME280;6464;42.494;27.470;2022-07-29T13:57:28;101551.47;;;32.91;100.00
12801;BME280;6464;42.494;27.470;2022-07-29T13:59:56;101537.78;;;32.46;100.00
12801;BME280;6464;42.494;27.470;2022-07-29T14:02:23;101532.16;;;32.75;100.00
12801;BME280;6464;42.494;27.470;2022-07-29T14:04:50;101533.75;;;32.68;100.00
12801;BME280;6464;42.494;27.470;2022-07-29T14:07:17;101505.81;;;32.19;100.00
12801;BME280;6464;42.494;27.470;2022-07-29T14:09:44;101529.41;;;32.47;100.00
12801;BME280;6464;42.494;27.470;2022-07-29T14:12:12;101537.44;;;33.04;100.00
12801;BME280;6464;42.494;27.470;2022-07-29T14:14:39;101526.91;;;32.36;100.00
12801;BME280;6464;42.494;27.470;2022-07-29T14:17:07;101545.97;;;33.19;100.00
12801;BME280;6464;42.494;27.470;2022-07-29T14:19:34;101555.03;;;33.37;100.00
12801;BME280;6464;42.494;27.470;2022-07-29T14:22:03;101513.66;;;32.87;100.00
12801;BME280;6464;42.494;27.470;2022-07-29T14:24:30;101526.91;;;33.27;100.00
12801;BME280;6464;42.494;27.470;2022-07-29T14:26:58;101531.56;;;33.35;100.00
12801;BME280;6464;42.494;27.470;2022-07-29T14:29:26;101534.41;;;32.80;100.00
12801;BME280;6464;42.494;27.470;2022-07-29T14:31:53;101515.06;;;32.45;100.00
12801;BME280;6464;42.494;27.470;2022-07-29T14:34:20;101519.41;;;32.29;100.00
12801;BME280;6464;42.494;27.470;2022-07-29T14:36:47;101509.56;;;32.18;100.00
12801;BME280;6464;42.494;27.470;2022-07-29T14:39:14;101528.00;;;32.71;100.00
12801;BME280;6464;42.494;27.470;2022-07-29T14:41:42;101510.31;;;32.01;100.00
12801;BME280;6464;42.494;27.470;2022-07-29T14:44:09;101450.81;;;32.14;100.00
12801;BME280;6464;42.494;27.470;2022-07-29T14:46:38;101504.50;;;32.78;100.00
12801;BME280;6464;42.494;27.470;2022-07-29T14:49:05;101526.84;;;32.73;100.00
12801;BME280;6464;42.494;27.470;2022-07-29T14:51:32;101547.66;;;33.20;100.00
12801;BME280;6464;42.494;27.470;2022-07-29T14:53:59;101551.34;;;33.29;100.00
12801;BME280;6464;42.494;27.470;2022-07-29T14:56:26;101536.81;;;32.65;100.00
12801;BME280;6464;42.494;27.470;2022-07-29T14:58:55;101523.22;;;32.73;100.00
12801;BME280;6464;42.494;27.470;2022-07-29T15:01:23;101491.88;;;32.77;100.00
12801;BME280;6464;42.494;27.470;2022-07-29T15:03:52;101555.84;;;33.47;100.00
12801;BME280;6464;42.494;27.470;2022-07-29T15:06:22;101541.50;;;33.18;100.00
12801;BME280;6464;42.494;27.470;2022-07-29T15:08:51;101522.31;;;32.82;100.00
12801;BME280;6464;42.494;27.470;2022-07-29T15:11:19;101529.31;;;32.94;100.00
12801;BME280;6464;42.494;27.470;2022-07-29T15:13:46;101516.44;;;33.05;100.00
12801;BME280;6464;42.494;27.470;2022-07-29T15:16:13;101546.41;;;32.96;100.00
12801;BME280;6464;42.494;27.470;2022-07-29T15:18:40;101541.03;;;33.05;100.00
12801;BME280;6464;42.494;27.470;2022-07-29T15:21:08;101526.88;;;32.91;100.00
12801;BME280;6464;42.494;27.470;2022-07-29T15:23:35;101520.59;;;32.81;100.00
12801;BME280;6464;42.494;27.470;2022-07-29T15:26:02;101504.72;;;32.39;100.00
12801;BME280;6464;42.494;27.470;2022-07-29T15:28:30;101504.56;;;32.04;100.00
12801;BME280;6464;42.494;27.470;2022-07-29T15:30:57;101494.59;;;31.85;100.00
12801;BME280;6464;42.494;27.470;2022-07-29T15:33:23;101489.81;;;31.96;100.00
12801;BME280;6464;42.494;27.470;2022-07-29T15:35:51;101481.81;;;31.76;100.00
12801;BME280;6464;42.494;27.470;2022-07-29T15:38:20;101495.25;;;32.06;100.00
12801;BME280;6464;42.494;27.470;2022-07-29T15:40:47;101447.59;;;31.44;100.00
12801;BME280;6464;42.494;27.470;2022-07-29T15:43:14;101482.00;;;31.55;100.00
12801;BME280;6464;42.494;27.470;2022-07-29T15:45:42;101478.66;;;31.70;100.00
12801;BME280;6464;42.494;27.470;2022-07-29T15:48:30;101484.56;;;31.56;100.00
12801;BME280;6464;42.494;27.470;2022-07-29T15:50:58;101486.88;;;31.12;100.00
12801;BME280;6464;42.494;27.470;2022-07-29T15:53:26;101483.59;;;31.28;100.00
12801;BME280;6464;42.494;27.470;2022-07-29T15:55:54;101392.44;;;30.24;100.00
12801;BME280;6464;42.494;27.470;2022-07-29T15:58:21;101475.72;;;31.35;100.00
12801;BME280;6464;42.494;27.470;2022-07-29T16:00:48;101515.66;;;32.30;100.00
12801;BME280;6464;42.494;27.470;2022-07-29T16:03:15;101521.44;;;32.27;100.00
12801;BME280;6464;42.494;27.470;2022-07-29T16:05:42;101528.25;;;32.13;100.00
12801;BME280;6464;42.494;27.470;2022-07-29T16:08:09;101486.53;;;30.67;100.00
12801;BME280;6464;42.494;27.470;2022-07-29T16:10:38;101471.66;;;30.31;100.00
12801;BME280;6464;42.494;27.470;2022-07-29T16:13:05;101440.75;;;29.50;100.00
12801;BME280;6464;42.494;27.470;2022-07-29T16:15:32;101415.66;;;29.04;100.00
12801;BME280;6464;42.494;27.470;2022-07-29T16:17:59;101401.28;;;28.81;100.00
12801;BME280;6464;42.494;27.470;2022-07-29T16:20:26;101391.50;;;28.69;100.00
12801;BME280;6464;42.494;27.470;2022-07-29T16:22:53;101375.75;;;28.52;100.00
12801;BME280;6464;42.494;27.470;2022-07-29T16:25:20;101330.28;;;28.33;100.00